sim
Sign-in with your pilot id or email,
or register
Callsign
Passwort

Schedule Details

Flight Number: DLH2085
Departure: Hamburg Airport (EDDH) at 06:15
Arrival: Munich Airport (EDDM) at 07:30
Route: Lufthansa Passenger Schedule. Enter filed route here before submitting Pirep.

Weather Information
Getting current METAR information for EDDH 241920Z 12005KT CAVOK 13/07 Q1001 NOSIG
Getting current METAR information for EDDM 241920Z 04005KT CAVOK 16/13 Q1004 NOSIG

Schedule Frequency

Route Map